sensor_id;sensor_type;location;lat;lon;timestamp;temperature;humidity
44731;DHT22;30458;47.448;19.032;2022-09-01T00:09:26;21.60;92.00
44731;DHT22;30458;47.448;19.032;2022-09-01T00:19:27;21.20;93.40
44731;DHT22;30458;47.448;19.032;2022-09-01T00:29:31;21.30;93.00
44731;DHT22;30458;47.448;19.032;2022-09-01T00:39:32;21.30;93.10
44731;DHT22;30458;47.448;19.032;2022-09-01T00:49:42;21.10;93.30
44731;DHT22;30458;47.448;19.032;2022-09-01T01:00:11;21.10;93.80
44731;DHT22;30458;47.448;19.032;2022-09-01T01:10:17;20.90;93.60
44731;DHT22;30458;47.448;19.032;2022-09-01T01:20:19;20.90;94.70
44731;DHT22;30458;47.448;19.032;2022-09-01T01:30:50;21.00;94.10
44731;DHT22;30458;47.448;19.032;2022-09-01T01:40:54;20.70;94.30
44731;DHT22;30458;47.448;19.032;2022-09-01T01:50:59;20.40;95.20
44731;DHT22;30458;47.448;19.032;2022-09-01T02:01:00;20.20;95.50
44731;DHT22;30458;47.448;19.032;2022-09-01T02:11:05;20.20;95.70
44731;DHT22;30458;47.448;19.032;2022-09-01T02:21:08;20.10;96.10
44731;DHT22;30458;47.448;19.032;2022-09-01T02:31:10;19.70;96.20
44731;DHT22;30458;47.448;19.032;2022-09-01T02:41:14;19.60;97.00
44731;DHT22;30458;47.448;19.032;2022-09-01T02:51:18;19.50;97.00
44731;DHT22;30458;47.448;19.032;2022-09-01T03:01:25;19.30;97.50
44731;DHT22;30458;47.448;19.032;2022-09-01T03:11:32;19.10;97.70
44731;DHT22;30458;47.448;19.032;2022-09-01T03:21:37;19.00;97.80
44731;DHT22;30458;47.448;19.032;2022-09-01T03:31:40;18.90;97.80
44731;DHT22;30458;47.448;19.032;2022-09-01T03:41:42;18.70;97.80
44731;DHT22;30458;47.448;19.032;2022-09-01T03:51:43;18.90;98.00
44731;DHT22;30458;47.448;19.032;2022-09-01T04:01:45;19.10;97.10
44731;DHT22;30458;47.448;19.032;2022-09-01T04:11:46;18.90;97.30
44731;DHT22;30458;47.448;19.032;2022-09-01T04:21:53;18.60;97.90
44731;DHT22;30458;47.448;19.032;2022-09-01T04:32:06;18.50;98.70
44731;DHT22;30458;47.448;19.032;2022-09-01T04:42:10;18.40;98.90
44731;DHT22;30458;47.448;19.032;2022-09-01T04:52:14;18.60;98.60
44731;DHT22;30458;47.448;19.032;2022-09-01T05:02:15;18.30;99.10
44731;DHT22;30458;47.448;19.032;2022-09-01T05:12:19;18.00;99.70
44731;DHT22;30458;47.448;19.032;2022-09-01T05:22:22;18.00;99.90
44731;DHT22;30458;47.448;19.032;2022-09-01T05:32:32;18.10;99.90
44731;DHT22;30458;47.448;19.032;2022-09-01T05:42:33;18.40;99.80
44731;DHT22;30458;47.448;19.032;2022-09-01T05:52:36;18.30;99.90
44731;DHT22;30458;47.448;19.032;2022-09-01T06:02:37;18.30;99.90
44731;DHT22;30458;47.448;19.032;2022-09-01T06:12:42;18.50;99.70
44731;DHT22;30458;47.448;19.032;2022-09-01T06:22:45;18.40;99.70
44731;DHT22;30458;47.448;19.032;2022-09-01T06:32:52;18.40;99.50
44731;DHT22;30458;47.448;19.032;2022-09-01T06:42:55;18.20;99.80
44731;DHT22;30458;47.448;19.032;2022-09-01T06:52:56;18.40;99.70
44731;DHT22;30458;47.448;19.032;2022-09-01T07:03:14;18.40;99.80
44731;DHT22;30458;47.448;19.032;2022-09-01T07:13:27;18.70;99.30
44731;DHT22;30458;47.448;19.032;2022-09-01T07:23:31;18.90;98.80
44731;DHT22;30458;47.448;19.032;2022-09-01T07:33:34;19.20;99.10
44731;DHT22;30458;47.448;19.032;2022-09-01T07:43:36;19.20;98.20
44731;DHT22;30458;47.448;19.032;2022-09-01T07:53:55;19.50;98.40
44731;DHT22;30458;47.448;19.032;2022-09-01T08:03:59;19.50;99.10
44731;DHT22;30458;47.448;19.032;2022-09-01T08:14:01;19.70;97.50
44731;DHT22;30458;47.448;19.032;2022-09-01T08:24:08;19.90;97.30
44731;DHT22;30458;47.448;19.032;2022-09-01T08:34:11;19.80;96.50
44731;DHT22;30458;47.448;19.032;2022-09-01T09:04:46;19.70;94.90
44731;DHT22;30458;47.448;19.032;2022-09-01T09:25:11;20.80;93.60
44731;DHT22;30458;47.448;19.032;2022-09-01T09:35:25;20.90;92.40
44731;DHT22;30458;47.448;19.032;2022-09-01T09:45:35;21.10;92.90
44731;DHT22;30458;47.448;19.032;2022-09-01T09:55:59;21.30;92.40
44731;DHT22;30458;47.448;19.032;2022-09-01T10:06:00;21.50;92.90
44731;DHT22;30458;47.448;19.032;2022-09-01T10:16:08;21.70;92.50
44731;DHT22;30458;47.448;19.032;2022-09-01T10:26:18;21.50;91.40
44731;DHT22;30458;47.448;19.032;2022-09-01T10:36:24;21.50;91.90
44731;DHT22;30458;47.448;19.032;2022-09-01T10:46:40;21.60;90.50
44731;DHT22;30458;47.448;19.032;2022-09-01T10:56:50;21.60;89.00
44731;DHT22;30458;47.448;19.032;2022-09-01T11:06:58;21.90;89.70
44731;DHT22;30458;47.448;19.032;2022-09-01T11:17:33;22.10;87.20
44731;DHT22;30458;47.448;19.032;2022-09-01T11:37:51;22.10;83.00
44731;DHT22;30458;47.448;19.032;2022-09-01T11:47:57;22.40;81.50
44731;DHT22;30458;47.448;19.032;2022-09-01T11:58:03;22.50;80.50
44731;DHT22;30458;47.448;19.032;2022-09-01T12:08:11;22.60;79.40
44731;DHT22;30458;47.448;19.032;2022-09-01T12:18:20;22.60;78.40
44731;DHT22;30458;47.448;19.032;2022-09-01T12:28:23;22.80;77.80
44731;DHT22;30458;47.448;19.032;2022-09-01T12:38:28;22.90;78.90
44731;DHT22;30458;47.448;19.032;2022-09-01T12:48:33;22.90;75.60
44731;DHT22;30458;47.448;19.032;2022-09-01T12:58:39;23.10;74.90
44731;DHT22;30458;47.448;19.032;2022-09-01T13:08:42;23.10;75.40
44731;DHT22;30458;47.448;19.032;2022-09-01T13:18:43;23.00;74.10
44731;DHT22;30458;47.448;19.032;2022-09-01T13:28:44;23.20;74.30
44731;DHT22;30458;47.448;19.032;2022-09-01T13:38:47;23.40;72.80
44731;DHT22;30458;47.448;19.032;2022-09-01T13:48:48;23.50;72.80
44731;DHT22;30458;47.448;19.032;2022-09-01T13:58:49;23.50;69.90
44731;DHT22;30458;47.448;19.032;2022-09-01T14:08:49;23.50;70.70
44731;DHT22;30458;47.448;19.032;2022-09-01T14:18:50;23.60;70.30
44731;DHT22;30458;47.448;19.032;2022-09-01T14:28:51;23.60;71.40
44731;DHT22;30458;47.448;19.032;2022-09-01T14:38:52;23.60;71.90
44731;DHT22;30458;47.448;19.032;2022-09-01T14:48:54;23.60;71.40
44731;DHT22;30458;47.448;19.032;2022-09-01T14:58:57;23.60;70.40
44731;DHT22;30458;47.448;19.032;2022-09-01T15:09:00;23.50;71.50
44731;DHT22;30458;47.448;19.032;2022-09-01T15:19:02;23.50;67.20
44731;DHT22;30458;47.448;19.032;2022-09-01T15:29:07;23.60;67.00
44731;DHT22;30458;47.448;19.032;2022-09-01T15:39:11;23.60;66.40
44731;DHT22;30458;47.448;19.032;2022-09-01T15:49:12;23.60;67.00
44731;DHT22;30458;47.448;19.032;2022-09-01T15:59:14;23.60;66.50
44731;DHT22;30458;47.448;19.032;2022-09-01T16:09:18;23.50;64.90
44731;DHT22;30458;47.448;19.032;2022-09-01T16:19:46;23.40;65.50
44731;DHT22;30458;47.448;19.032;2022-09-01T16:29:55;23.20;66.30
44731;DHT22;30458;47.448;19.032;2022-09-01T17:00:14;23.00;67.60
44731;DHT22;30458;47.448;19.032;2022-09-01T17:10:34;22.90;68.10
44731;DHT22;30458;47.448;19.032;2022-09-01T17:20:43;22.90;68.80
44731;DHT22;30458;47.448;19.032;2022-09-01T17:31:02;22.80;68.80
44731;DHT22;30458;47.448;19.032;2022-09-01T17:41:19;22.70;69.00
44731;DHT22;30458;47.448;19.032;2022-09-01T18:02:36;22.60;70.50
44731;DHT22;30458;47.448;19.032;2022-09-01T18:12:49;22.50;75.50
44731;DHT22;30458;47.448;19.032;2022-09-01T18:33:07;22.00;81.20
44731;DHT22;30458;47.448;19.032;2022-09-01T18:43:28;21.80;82.60
44731;DHT22;30458;47.448;19.032;2022-09-01T18:53:56;21.60;85.20
44731;DHT22;30458;47.448;19.032;2022-09-01T19:04:23;21.50;86.30
44731;DHT22;30458;47.448;19.032;2022-09-01T19:14:51;21.30;86.20
44731;DHT22;30458;47.448;19.032;2022-09-01T19:25:02;21.10;86.70
44731;DHT22;30458;47.448;19.032;2022-09-01T19:35:22;20.80;88.50
44731;DHT22;30458;47.448;19.032;2022-09-01T20:06:04;20.40;88.70
44731;DHT22;30458;47.448;19.032;2022-09-01T20:16:09;20.30;88.40
44731;DHT22;30458;47.448;19.032;2022-09-01T20:26:25;20.20;90.00
44731;DHT22;30458;47.448;19.032;2022-09-01T20:36:44;20.10;90.80
44731;DHT22;30458;47.448;19.032;2022-09-01T20:46:51;20.00;91.30
44731;DHT22;30458;47.448;19.032;2022-09-01T21:07:30;19.80;91.80
44731;DHT22;30458;47.448;19.032;2022-09-01T21:17:56;19.70;91.00
44731;DHT22;30458;47.448;19.032;2022-09-01T21:28:04;19.80;90.90
44731;DHT22;30458;47.448;19.032;2022-09-01T21:38:06;19.80;90.30
44731;DHT22;30458;47.448;19.032;2022-09-01T21:48:06;19.80;89.50
44731;DHT22;30458;47.448;19.032;2022-09-01T21:58:08;19.70;88.30
44731;DHT22;30458;47.448;19.032;2022-09-01T22:08:11;19.70;86.70
44731;DHT22;30458;47.448;19.032;2022-09-01T22:18:13;19.70;85.60
44731;DHT22;30458;47.448;19.032;2022-09-01T22:28:17;19.70;84.50
44731;DHT22;30458;47.448;19.032;2022-09-01T22:38:21;19.60;82.80
44731;DHT22;30458;47.448;19.032;2022-09-01T22:48:26;19.60;81.30
44731;DHT22;30458;47.448;19.032;2022-09-01T22:58:27;19.60;79.60
44731;DHT22;30458;47.448;19.032;2022-09-01T23:08:33;19.70;79.50
44731;DHT22;30458;47.448;19.032;2022-09-01T23:18:39;19.60;79.70
44731;DHT22;30458;47.448;19.032;2022-09-01T23:28:41;19.50;79.20
44731;DHT22;30458;47.448;19.032;2022-09-01T23:38:45;19.50;78.90
44731;DHT22;30458;47.448;19.032;2022-09-01T23:48:49;19.40;78.90
44731;DHT22;30458;47.448;19.032;2022-09-01T23:58:50;19.40;78.40
